createdAt,value
2018-09-26T00:00:03.895Z,90.91
2018-09-26T00:03:14.968Z,91.81
2018-09-26T00:06:18.528Z,91.77
2018-09-26T00:09:22.121Z,92.03
2018-09-26T00:12:25.687Z,91.84
2018-09-26T00:15:29.305Z,92.12
2018-09-26T00:18:32.831Z,91.87
2018-09-26T00:21:36.482Z,92.00
2018-09-26T00:24:40.002Z,92.22
2018-09-26T00:27:43.668Z,92.00
2018-09-26T00:30:47.352Z,91.98
2018-09-26T00:33:50.964Z,91.82
2018-09-26T00:36:54.612Z,91.83
2018-09-26T00:39:58.124Z,91.81
2018-09-26T00:43:01.622Z,91.20
2018-09-26T00:46:05.331Z,90.97
2018-09-26T00:49:08.999Z,90.87
2018-09-26T00:52:12.567Z,90.78
2018-09-26T00:55:16.137Z,90.94
2018-09-26T00:58:19.671Z,90.44
2018-09-26T01:01:23.192Z,89.47
2018-09-26T01:04:26.831Z,89.36
2018-09-26T01:07:30.327Z,89.83
2018-09-26T01:10:33.848Z,89.78
2018-09-26T01:13:37.538Z,90.15
2018-09-26T01:16:41.188Z,90.98
2018-09-26T01:19:44.706Z,91.17
2018-09-26T01:22:48.214Z,90.55
2018-09-26T01:25:51.883Z,90.35
2018-09-26T01:28:55.352Z,89.68
2018-09-26T01:31:58.896Z,89.71
2018-09-26T01:35:02.879Z,88.75
2018-09-26T01:38:06.594Z,88.88
2018-09-26T01:41:10.143Z,89.36
2018-09-26T01:44:13.810Z,88.90
2018-09-26T01:47:17.307Z,88.66
2018-09-26T01:50:20.847Z,88.19
2018-09-26T01:53:24.382Z,88.18
2018-09-26T01:56:27.891Z,88.57
2018-09-26T01:59:31.433Z,88.31
2018-09-26T02:02:35.269Z,88.77
2018-09-26T02:05:38.856Z,89.46
2018-09-26T02:08:42.465Z,86.88
2018-09-26T02:11:46.009Z,82.47
2018-09-26T02:14:49.594Z,80.96
2018-09-26T02:17:53.128Z,78.64
2018-09-26T02:20:56.678Z,78.16
2018-09-26T02:24:00.389Z,78.57
2018-09-26T02:27:03.924Z,79.64
2018-09-26T02:30:07.707Z,78.73
2018-09-26T02:33:11.320Z,78.56
2018-09-26T02:36:15.613Z,78.11
2018-09-26T02:39:19.129Z,79.32
2018-09-26T02:42:22.737Z,78.60
2018-09-26T02:45:26.304Z,79.26
2018-09-26T02:48:35.076Z,78.26
2018-09-26T02:51:38.739Z,78.89
2018-09-26T02:54:42.234Z,79.59
2018-09-26T02:57:45.754Z,79.70
2018-09-26T03:00:49.407Z,79.95
2018-09-26T03:03:52.997Z,79.93
2018-09-26T03:06:56.598Z,78.75
2018-09-26T03:10:00.172Z,77.99
2018-09-26T03:13:03.720Z,76.97
2018-09-26T03:16:07.363Z,76.47
2018-09-26T03:19:10.906Z,77.81
2018-09-26T03:22:14.484Z,77.58
2018-09-26T03:25:18.109Z,76.52
2018-09-26T03:28:21.661Z,75.05
2018-09-26T03:31:25.238Z,76.45
2018-09-26T03:34:28.707Z,75.21
2018-09-26T03:37:32.310Z,74.77
2018-09-26T03:40:35.867Z,75.83
2018-09-26T03:43:39.440Z,76.84
2018-09-26T03:46:42.904Z,77.43
2018-09-26T03:49:46.447Z,77.52
2018-09-26T03:52:50.095Z,77.44
2018-09-26T03:55:53.640Z,78.57
2018-09-26T03:58:57.174Z,78.58
2018-09-26T04:02:00.764Z,77.88
2018-09-26T04:05:04.541Z,77.58
2018-09-26T04:08:08.049Z,77.77
2018-09-26T04:11:11.583Z,78.41
2018-09-26T04:14:15.140Z,79.29
2018-09-26T04:17:18.754Z,80.44
2018-09-26T04:20:22.392Z,80.61
2018-09-26T04:23:25.859Z,79.09
2018-09-26T04:26:29.628Z,79.47
2018-09-26T04:29:33.093Z,78.95
2018-09-26T04:32:36.899Z,78.92
2018-09-26T04:35:40.348Z,77.71
2018-09-26T04:38:44.789Z,77.14
2018-09-26T04:41:48.280Z,77.32
2018-09-26T04:44:51.811Z,75.93
2018-09-26T04:47:55.448Z,75.49
2018-09-26T04:50:59.046Z,74.80
2018-09-26T04:54:02.979Z,74.06
2018-09-26T04:57:06.556Z,74.49
2018-09-26T05:00:10.121Z,73.57
2018-09-26T05:03:13.687Z,73.75
2018-09-26T05:06:17.293Z,73.17
2018-09-26T05:09:20.794Z,74.16
2018-09-26T05:12:24.440Z,73.06
2018-09-26T05:15:28.135Z,73.38
2018-09-26T05:18:31.674Z,73.88
2018-09-26T05:21:35.268Z,73.98
2018-09-26T05:24:38.815Z,74.23
2018-09-26T05:27:42.394Z,74.49
2018-09-26T05:30:45.950Z,74.59
2018-09-26T05:33:50.794Z,74.68
2018-09-26T05:36:54.417Z,74.14
2018-09-26T05:39:57.995Z,72.59
2018-09-26T05:43:01.481Z,72.04
2018-09-26T05:46:05.046Z,73.28
2018-09-26T05:49:08.586Z,73.66
2018-09-26T05:52:12.316Z,73.69
2018-09-26T05:55:15.994Z,73.32
2018-09-26T05:58:19.479Z,74.15
2018-09-26T06:01:23.071Z,73.43
2018-09-26T06:04:26.576Z,73.06
2018-09-26T06:07:30.116Z,73.69
2018-09-26T06:10:33.745Z,73.02
2018-09-26T06:13:37.185Z,72.70
2018-09-26T06:16:40.820Z,72.96
2018-09-26T06:19:44.409Z,71.76
2018-09-26T06:22:47.934Z,72.52
2018-09-26T06:25:51.476Z,71.88
2018-09-26T06:28:54.987Z,70.95
2018-09-26T06:31:58.590Z,70.69
2018-09-26T06:35:02.198Z,69.32
2018-09-26T06:38:05.732Z,69.31
2018-09-26T06:41:09.275Z,69.37
2018-09-26T06:44:12.851Z,69.39
2018-09-26T06:47:16.355Z,68.99
2018-09-26T06:50:19.824Z,68.58
2018-09-26T06:53:23.444Z,67.51
2018-09-26T06:56:26.907Z,67.24
2018-09-26T06:59:30.490Z,67.76
2018-09-26T07:02:34.130Z,66.91
2018-09-26T07:05:37.779Z,65.11
2018-09-26T07:08:41.338Z,66.01
2018-09-26T07:11:44.866Z,66.23
2018-09-26T07:14:48.490Z,67.17
2018-09-26T07:17:52.232Z,66.31
2018-09-26T07:20:55.871Z,66.23
2018-09-26T07:23:59.362Z,65.74
2018-09-26T07:27:02.891Z,65.96
2018-09-26T07:30:06.545Z,65.41
2018-09-26T07:33:10.017Z,65.56
2018-09-26T07:36:13.562Z,65.20
2018-09-26T07:39:17.146Z,65.38
2018-09-26T07:42:20.647Z,65.24
2018-09-26T07:45:24.243Z,65.09
2018-09-26T07:48:27.743Z,63.96
2018-09-26T07:51:31.558Z,63.29
2018-09-26T07:54:35.086Z,62.42
2018-09-26T07:57:38.901Z,63.08
2018-09-26T08:00:42.418Z,63.04
2018-09-26T08:03:45.987Z,62.90
2018-09-26T08:06:49.817Z,62.56
2018-09-26T08:09:53.351Z,63.33
2018-09-26T08:12:57.028Z,61.68
2018-09-26T08:16:00.584Z,59.70
2018-09-26T08:19:04.149Z,59.89
2018-09-26T08:22:07.772Z,58.77
2018-09-26T08:25:11.433Z,58.37
2018-09-26T08:28:15.029Z,57.49
2018-09-26T08:31:18.627Z,57.40
2018-09-26T08:34:22.152Z,56.76
2018-09-26T08:37:25.631Z,57.25
2018-09-26T08:40:29.247Z,55.95
2018-09-26T08:43:32.942Z,57.56
2018-09-26T08:46:36.508Z,56.63
2018-09-26T08:49:40.132Z,55.60
2018-09-26T08:52:43.781Z,54.42
2018-09-26T08:55:47.423Z,54.79
2018-09-26T08:58:51.097Z,54.79
2018-09-26T09:01:54.642Z,56.07
2018-09-26T09:04:58.231Z,54.17
2018-09-26T09:08:02.348Z,53.35
2018-09-26T09:11:05.928Z,53.96
2018-09-26T09:14:09.572Z,54.92
2018-09-26T09:17:13.141Z,53.03
2018-09-26T09:20:16.871Z,53.36
2018-09-26T09:23:20.593Z,54.83
2018-09-26T09:26:24.242Z,53.01
2018-09-26T09:29:27.832Z,53.22
2018-09-26T09:32:31.541Z,52.86
2018-09-26T09:35:35.048Z,51.77
2018-09-26T09:38:38.626Z,52.09
2018-09-26T09:41:42.146Z,53.05
2018-09-26T09:44:45.664Z,53.35
2018-09-26T09:47:49.192Z,52.02
2018-09-26T09:50:52.736Z,52.16
2018-09-26T09:53:56.277Z,51.56
2018-09-26T09:56:59.820Z,51.51
2018-09-26T10:00:03.557Z,51.86
2018-09-26T10:03:07.376Z,51.44
2018-09-26T10:06:10.834Z,50.80
2018-09-26T10:09:14.342Z,51.20
2018-09-26T10:12:17.846Z,51.98
2018-09-26T10:15:21.406Z,51.86
2018-09-26T10:18:24.974Z,49.86
2018-09-26T10:21:28.468Z,50.48
2018-09-26T10:24:32.015Z,50.94
2018-09-26T10:27:35.563Z,50.92
2018-09-26T10:30:39.067Z,51.68
2018-09-26T10:33:42.633Z,51.05
2018-09-26T10:36:46.139Z,50.76
2018-09-26T10:39:49.699Z,51.35
2018-09-26T10:42:53.244Z,51.14
2018-09-26T10:45:56.862Z,52.60
2018-09-26T10:49:00.507Z,52.36
2018-09-26T10:52:03.978Z,51.45
2018-09-26T10:55:07.530Z,51.16
2018-09-26T10:58:11.152Z,51.55
2018-09-26T11:01:14.784Z,52.51
2018-09-26T11:04:18.360Z,51.85
2018-09-26T11:07:22.328Z,51.28
2018-09-26T11:10:25.984Z,52.73
2018-09-26T11:13:29.415Z,51.10
2018-09-26T11:16:32.945Z,51.71
2018-09-26T11:19:36.433Z,51.84
2018-09-26T11:22:40.038Z,52.16
2018-09-26T11:25:43.650Z,52.18
2018-09-26T11:28:47.320Z,50.85
2018-09-26T11:31:50.829Z,50.84
2018-09-26T11:34:54.403Z,51.22
2018-09-26T11:37:57.989Z,51.02
2018-09-26T11:41:01.509Z,51.21
2018-09-26T11:44:05.248Z,50.36
2018-09-26T11:47:09.117Z,51.13
2018-09-26T11:50:12.830Z,51.12
2018-09-26T11:53:16.379Z,49.98
2018-09-26T11:56:20.149Z,49.67
2018-09-26T11:59:23.681Z,51.36
2018-09-26T12:02:27.387Z,51.11
2018-09-26T12:05:30.845Z,49.47
2018-09-26T12:08:34.608Z,50.32
2018-09-26T12:11:38.261Z,49.48
2018-09-26T12:14:41.783Z,49.85
2018-09-26T12:17:45.319Z,49.32
2018-09-26T12:20:48.910Z,49.48
2018-09-26T12:23:52.401Z,49.39
2018-09-26T12:26:55.942Z,51.55
2018-09-26T12:29:59.400Z,50.48
2018-09-26T12:33:02.938Z,50.04
2018-09-26T12:36:06.459Z,48.78
2018-09-26T12:39:11.000Z,49.67
2018-09-26T12:42:14.583Z,50.11
2018-09-26T12:45:18.130Z,49.20
2018-09-26T12:48:21.776Z,49.48
2018-09-26T12:51:25.260Z,49.64
2018-09-26T12:54:28.822Z,49.05
2018-09-26T12:57:32.436Z,49.44
2018-09-26T13:00:35.992Z,49.19
2018-09-26T13:03:44.498Z,48.69
2018-09-26T13:06:48.134Z,48.10
2018-09-26T13:09:51.693Z,48.04
2018-09-26T13:12:55.270Z,47.32
2018-09-26T13:15:58.837Z,47.46
2018-09-26T13:19:02.465Z,46.74
2018-09-26T13:22:06.009Z,46.31
2018-09-26T13:25:09.602Z,47.43
2018-09-26T13:28:13.346Z,46.88
2018-09-26T13:31:16.995Z,46.07
2018-09-26T13:34:20.691Z,46.46
2018-09-26T13:37:24.229Z,46.55
2018-09-26T13:40:28.527Z,46.44
2018-09-26T13:43:32.080Z,46.97
2018-09-26T13:46:35.778Z,45.99
2018-09-26T13:49:39.466Z,47.53
2018-09-26T13:52:43.035Z,48.49
2018-09-26T13:55:46.527Z,46.10
2018-09-26T13:58:50.193Z,45.43
2018-09-26T14:01:53.692Z,48.62
2018-09-26T14:04:57.382Z,46.72
2018-09-26T14:08:01.280Z,46.91
2018-09-26T14:11:04.828Z,47.23
2018-09-26T14:14:08.389Z,46.35
2018-09-26T14:17:11.980Z,45.78
2018-09-26T14:20:15.642Z,45.57
2018-09-26T14:23:19.313Z,45.60
2018-09-26T14:26:22.980Z,45.72
2018-09-26T14:29:27.036Z,45.39
2018-09-26T14:32:31.607Z,44.54
2018-09-26T14:35:35.250Z,44.61
2018-09-26T14:38:39.049Z,45.38
2018-09-26T14:41:42.621Z,43.76
2018-09-26T14:44:46.250Z,43.88
2018-09-26T14:47:49.880Z,45.04
2018-09-26T14:50:53.511Z,44.37
2018-09-26T14:53:57.365Z,43.39
2018-09-26T14:57:00.926Z,44.33
2018-09-26T15:00:04.717Z,44.30
2018-09-26T15:03:08.215Z,44.91
2018-09-26T15:06:12.031Z,44.14
2018-09-26T15:09:15.625Z,44.46
2018-09-26T15:12:19.171Z,44.69
2018-09-26T15:15:22.768Z,45.07
2018-09-26T15:18:26.479Z,44.94
2018-09-26T15:21:30.124Z,46.07
2018-09-26T15:24:33.671Z,45.62
2018-09-26T15:27:37.224Z,45.79
2018-09-26T15:30:40.754Z,44.27
2018-09-26T15:33:44.476Z,44.59
2018-09-26T15:36:47.997Z,45.46
2018-09-26T15:39:51.615Z,46.44
2018-09-26T15:42:55.245Z,45.37
2018-09-26T15:45:58.791Z,44.78
2018-09-26T15:49:02.426Z,45.05
2018-09-26T15:52:06.044Z,44.59
2018-09-26T15:55:09.764Z,45.53
2018-09-26T15:58:13.473Z,44.75
2018-09-26T16:01:17.073Z,46.31
2018-09-26T16:04:20.833Z,45.35
2018-09-26T16:07:24.460Z,46.11
2018-09-26T16:10:28.038Z,46.49
2018-09-26T16:13:31.572Z,45.91
2018-09-26T16:16:35.239Z,45.95
2018-09-26T16:19:38.846Z,45.42
2018-09-26T16:22:42.559Z,45.86
2018-09-26T16:25:46.308Z,48.23
2018-09-26T16:28:49.864Z,46.47
2018-09-26T16:31:53.480Z,47.63
2018-09-26T16:34:57.064Z,47.02
2018-09-26T16:38:00.758Z,47.10
2018-09-26T16:41:04.554Z,47.97
2018-09-26T16:44:08.176Z,47.81
2018-09-26T16:47:11.769Z,47.59
2018-09-26T16:50:15.349Z,47.44
2018-09-26T16:53:18.997Z,48.23
2018-09-26T16:56:22.714Z,48.72
2018-09-26T16:59:26.202Z,48.57
2018-09-26T17:02:29.739Z,48.86
2018-09-26T17:05:33.457Z,49.04
2018-09-26T17:08:37.483Z,49.30
2018-09-26T17:11:41.109Z,48.83
2018-09-26T17:14:44.681Z,50.60
2018-09-26T17:17:48.243Z,49.59
2018-09-26T17:20:51.849Z,49.08
2018-09-26T17:23:55.420Z,49.89
2018-09-26T17:26:58.949Z,49.87
2018-09-26T17:30:02.596Z,51.28
2018-09-26T17:33:06.271Z,50.42
2018-09-26T17:36:09.969Z,50.26
2018-09-26T17:39:13.555Z,50.03
2018-09-26T17:42:17.197Z,50.73
2018-09-26T17:45:20.870Z,51.77
2018-09-26T17:48:24.449Z,50.20
2018-09-26T17:51:28.064Z,49.96
2018-09-26T17:54:31.936Z,49.92
2018-09-26T17:57:35.485Z,50.61
2018-09-26T18:00:39.143Z,50.25
2018-09-26T18:03:42.694Z,50.02
2018-09-26T18:06:46.245Z,49.99
2018-09-26T18:09:49.821Z,49.46
2018-09-26T18:12:53.377Z,49.31
2018-09-26T18:15:57.079Z,50.03
2018-09-26T18:19:00.768Z,51.03
2018-09-26T18:22:04.458Z,49.55
2018-09-26T18:25:08.018Z,50.18
2018-09-26T18:28:11.642Z,52.15
2018-09-26T18:31:15.272Z,50.73
2018-09-26T18:34:18.904Z,51.35
2018-09-26T18:37:22.882Z,50.64
2018-09-26T18:40:26.506Z,52.41
2018-09-26T18:43:30.044Z,51.99
2018-09-26T18:46:33.656Z,52.52
2018-09-26T18:49:37.416Z,51.70
2018-09-26T18:52:41.047Z,51.92
2018-09-26T18:55:44.680Z,52.34
2018-09-26T18:58:48.432Z,51.84
2018-09-26T19:01:51.933Z,52.03
2018-09-26T19:04:55.671Z,54.14
2018-09-26T19:07:59.047Z,54.10
2018-09-26T19:18:26.724Z,54.30
2018-09-26T19:21:30.400Z,54.38
2018-09-26T19:24:34.106Z,54.41
2018-09-26T19:27:37.629Z,54.63
2018-09-26T19:30:41.330Z,54.07
2018-09-26T19:33:45.022Z,54.35
2018-09-26T19:36:48.628Z,53.22
2018-09-26T19:39:52.248Z,52.44
2018-09-26T19:42:55.795Z,54.29
2018-09-26T19:45:59.442Z,52.41
2018-09-26T19:49:03.256Z,57.61
2018-09-26T19:52:06.871Z,54.50
2018-09-26T19:55:10.480Z,55.15
2018-09-26T19:58:14.143Z,53.84
2018-09-26T20:01:17.719Z,54.32
2018-09-26T20:04:21.379Z,56.59
2018-09-26T20:07:25.023Z,56.42
2018-09-26T20:10:28.700Z,57.05
2018-09-26T20:13:32.356Z,55.82
2018-09-26T20:16:35.853Z,57.05
2018-09-26T20:19:39.571Z,58.08
2018-09-26T20:22:43.234Z,56.05
2018-09-26T20:25:46.882Z,56.57
2018-09-26T20:28:50.701Z,55.86
2018-09-26T20:31:54.461Z,56.03
2018-09-26T20:34:58.162Z,55.47
2018-09-26T20:38:02.870Z,55.66
2018-09-26T20:41:06.457Z,56.21
2018-09-26T20:44:10.057Z,55.89
2018-09-26T20:47:13.735Z,55.28
2018-09-26T20:50:17.505Z,56.57
2018-09-26T20:53:21.169Z,56.43
2018-09-26T20:56:24.695Z,57.50
2018-09-26T20:59:28.411Z,57.21
2018-09-26T21:02:32.070Z,56.96
2018-09-26T21:05:35.833Z,58.37
2018-09-26T21:08:39.369Z,58.14
2018-09-26T21:11:43.078Z,56.98
2018-09-26T21:14:46.628Z,57.76
2018-09-26T21:17:50.293Z,58.71
2018-09-26T21:20:53.913Z,59.24
2018-09-26T21:23:57.478Z,57.66
2018-09-26T21:27:01.052Z,59.36
2018-09-26T21:30:04.984Z,58.88
2018-09-26T21:33:08.989Z,59.52
2018-09-26T21:36:12.512Z,58.66
2018-09-26T21:39:16.858Z,58.02
2018-09-26T21:42:20.406Z,59.49
2018-09-26T21:45:23.917Z,58.03
2018-09-26T21:48:27.531Z,58.75
2018-09-26T21:51:31.087Z,57.05
2018-09-26T21:54:34.598Z,57.00
2018-09-26T21:57:38.131Z,57.43
2018-09-26T22:00:46.864Z,57.22
2018-09-26T22:03:50.567Z,57.52
2018-09-26T22:06:54.210Z,57.58
2018-09-26T22:09:57.940Z,56.67
2018-09-26T22:13:01.525Z,57.83
2018-09-26T22:16:05.282Z,56.68
2018-09-26T22:19:08.858Z,57.06
2018-09-26T22:22:12.509Z,58.22
2018-09-26T22:25:16.454Z,57.92
2018-09-26T22:28:20.094Z,59.89
2018-09-26T22:31:23.790Z,58.54
2018-09-26T22:34:27.436Z,58.03
2018-09-26T22:37:31.069Z,59.69
2018-09-26T22:40:34.980Z,58.84
2018-09-26T22:43:38.652Z,59.26
2018-09-26T22:46:42.294Z,58.69
2018-09-26T22:49:45.879Z,58.75
2018-09-26T22:52:49.457Z,59.33
2018-09-26T22:55:53.177Z,59.54
2018-09-26T22:58:56.974Z,59.78
2018-09-26T23:02:00.582Z,60.44
2018-09-26T23:05:04.276Z,59.84
2018-09-26T23:08:07.857Z,60.04
2018-09-26T23:11:11.594Z,59.37
2018-09-26T23:14:15.252Z,58.59
2018-09-26T23:17:18.906Z,58.83
2018-09-26T23:20:22.608Z,59.24
2018-09-26T23:23:26.306Z,59.04
2018-09-26T23:26:29.996Z,58.69
2018-09-26T23:29:33.596Z,59.40
2018-09-26T23:32:37.196Z,59.42
2018-09-26T23:35:40.893Z,58.88
2018-09-26T23:38:44.557Z,60.25
2018-09-26T23:41:48.307Z,59.07
2018-09-26T23:44:52.015Z,60.32
2018-09-26T23:47:55.755Z,59.27
2018-09-26T23:50:59.466Z,60.91
2018-09-26T23:54:03.271Z,61.20
2018-09-26T23:57:06.907Z,59.28
